sensor_id;sensor_type;location;lat;lon;timestamp;pressure;altitude;pressure_sealevel;temperature
12430;BMP280;6279;42.192;24.326;2022-09-01T00:01:26;98773.75;;;19.03
12430;BMP280;6279;42.192;24.326;2022-09-01T00:03:53;98767.56;;;18.98
12430;BMP280;6279;42.192;24.326;2022-09-01T00:06:21;98766.03;;;18.90
12430;BMP280;6279;42.192;24.326;2022-09-01T00:08:52;98777.16;;;18.92
12430;BMP280;6279;42.192;24.326;2022-09-01T00:11:19;98779.44;;;18.89
12430;BMP280;6279;42.192;24.326;2022-09-01T00:13:45;98780.59;;;18.93
12430;BMP280;6279;42.192;24.326;2022-09-01T00:16:11;98779.19;;;18.79
12430;BMP280;6279;42.192;24.326;2022-09-01T00:18:41;98774.31;;;18.76
12430;BMP280;6279;42.192;24.326;2022-09-01T00:21:09;98773.16;;;18.72
12430;BMP280;6279;42.192;24.326;2022-09-01T00:23:35;98776.00;;;18.71
12430;BMP280;6279;42.192;24.326;2022-09-01T00:26:01;98768.69;;;18.73
12430;BMP280;6279;42.192;24.326;2022-09-01T00:28:26;98780.84;;;18.74
12430;BMP280;6279;42.192;24.326;2022-09-01T00:30:52;98790.22;;;18.70
12430;BMP280;6279;42.192;24.326;2022-09-01T00:33:18;98788.16;;;18.72
12430;BMP280;6279;42.192;24.326;2022-09-01T00:35:43;98792.28;;;18.68
12430;BMP280;6279;42.192;24.326;2022-09-01T00:38:09;98787.47;;;18.47
12430;BMP280;6279;42.192;24.326;2022-09-01T00:40:34;98788.06;;;18.49
12430;BMP280;6279;42.192;24.326;2022-09-01T00:43:10;98797.34;;;18.52
12430;BMP280;6279;42.192;24.326;2022-09-01T00:45:35;98795.72;;;18.51
12430;BMP280;6279;42.192;24.326;2022-09-01T00:48:01;98790.03;;;18.54
12430;BMP280;6279;42.192;24.326;2022-09-01T00:50:30;98788.31;;;18.59
12430;BMP280;6279;42.192;24.326;2022-09-01T00:52:56;98787.09;;;18.62
12430;BMP280;6279;42.192;24.326;2022-09-01T00:55:28;98785.91;;;18.58
12430;BMP280;6279;42.192;24.326;2022-09-01T00:57:55;98782.06;;;18.60
12430;BMP280;6279;42.192;24.326;2022-09-01T01:00:24;98775.31;;;18.64
12430;BMP280;6279;42.192;24.326;2022-09-01T01:02:50;98765.81;;;18.63
12430;BMP280;6279;42.192;24.326;2022-09-01T01:05:22;98769.59;;;18.67
12430;BMP280;6279;42.192;24.326;2022-09-01T01:07:53;98765.13;;;18.67
12430;BMP280;6279;42.192;24.326;2022-09-01T01:10:20;98756.66;;;18.66
12430;BMP280;6279;42.192;24.326;2022-09-01T01:12:48;98763.22;;;18.57
12430;BMP280;6279;42.192;24.326;2022-09-01T01:15:16;98760.13;;;18.48
12430;BMP280;6279;42.192;24.326;2022-09-01T01:17:42;98759.75;;;18.45
12430;BMP280;6279;42.192;24.326;2022-09-01T01:20:11;98756.91;;;18.46
12430;BMP280;6279;42.192;24.326;2022-09-01T01:22:58;98761.72;;;18.49
12430;BMP280;6279;42.192;24.326;2022-09-01T01:25:45;98764.94;;;18.51
12430;BMP280;6279;42.192;24.326;2022-09-01T01:28:24;98762.31;;;18.51
12430;BMP280;6279;42.192;24.326;2022-09-01T01:30:54;98746.28;;;18.53
12430;BMP280;6279;42.192;24.326;2022-09-01T01:33:23;98759.22;;;18.54
12430;BMP280;6279;42.192;24.326;2022-09-01T01:35:49;98752.44;;;18.47
12430;BMP280;6279;42.192;24.326;2022-09-01T01:38:16;98757.50;;;18.31
12430;BMP280;6279;42.192;24.326;2022-09-01T01:40:43;98757.66;;;18.18
12430;BMP280;6279;42.192;24.326;2022-09-01T01:43:09;98748.72;;;18.19
12430;BMP280;6279;42.192;24.326;2022-09-01T01:45:36;98750.63;;;18.30
12430;BMP280;6279;42.192;24.326;2022-09-01T01:48:01;98738.63;;;18.34
12430;BMP280;6279;42.192;24.326;2022-09-01T01:50:33;98745.63;;;18.40
12430;BMP280;6279;42.192;24.326;2022-09-01T01:53:01;98751.28;;;18.43
12430;BMP280;6279;42.192;24.326;2022-09-01T01:55:28;98754.13;;;18.42
12430;BMP280;6279;42.192;24.326;2022-09-01T01:57:56;98751.31;;;18.25
12430;BMP280;6279;42.192;24.326;2022-09-01T02:00:25;98754.53;;;18.10
12430;BMP280;6279;42.192;24.326;2022-09-01T02:02:52;98749.97;;;18.17
12430;BMP280;6279;42.192;24.326;2022-09-01T02:05:24;98741.50;;;18.15
12430;BMP280;6279;42.192;24.326;2022-09-01T02:07:54;98754.78;;;18.20
12430;BMP280;6279;42.192;24.326;2022-09-01T02:10:22;98753.13;;;18.25
12430;BMP280;6279;42.192;24.326;2022-09-01T02:12:48;98755.16;;;18.23
12430;BMP280;6279;42.192;24.326;2022-09-01T02:15:14;98750.69;;;18.23
12430;BMP280;6279;42.192;24.326;2022-09-01T02:17:40;98762.47;;;18.21
12430;BMP280;6279;42.192;24.326;2022-09-01T02:20:08;98757.28;;;18.15
12430;BMP280;6279;42.192;24.326;2022-09-01T02:22:35;98750.19;;;18.15
12430;BMP280;6279;42.192;24.326;2022-09-01T02:25:03;98763.59;;;18.14
12430;BMP280;6279;42.192;24.326;2022-09-01T02:27:30;98760.41;;;18.05
12430;BMP280;6279;42.192;24.326;2022-09-01T02:30:02;98772.41;;;18.01
12430;BMP280;6279;42.192;24.326;2022-09-01T02:32:27;98761.59;;;17.92
12430;BMP280;6279;42.192;24.326;2022-09-01T02:34:52;98765.19;;;17.97
12430;BMP280;6279;42.192;24.326;2022-09-01T02:37:20;98765.19;;;17.97
12430;BMP280;6279;42.192;24.326;2022-09-01T02:39:51;98766.78;;;17.98
12430;BMP280;6279;42.192;24.326;2022-09-01T02:42:23;98767.69;;;17.86
12430;BMP280;6279;42.192;24.326;2022-09-01T02:44:55;98762.19;;;17.94
12430;BMP280;6279;42.192;24.326;2022-09-01T02:47:22;98762.78;;;17.96
12430;BMP280;6279;42.192;24.326;2022-09-01T02:49:49;98761.75;;;17.97
12430;BMP280;6279;42.192;24.326;2022-09-01T02:52:14;98762.41;;;17.92
12430;BMP280;6279;42.192;24.326;2022-09-01T02:54:42;98756.34;;;17.92
12430;BMP280;6279;42.192;24.326;2022-09-01T02:57:10;98752.94;;;17.85
12430;BMP280;6279;42.192;24.326;2022-09-01T02:59:36;98766.38;;;17.77
12430;BMP280;6279;42.192;24.326;2022-09-01T03:02:02;98760.38;;;17.70
12430;BMP280;6279;42.192;24.326;2022-09-01T03:04:28;98766.06;;;17.67
12430;BMP280;6279;42.192;24.326;2022-09-01T03:06:58;98768.38;;;17.57
12430;BMP280;6279;42.192;24.326;2022-09-01T03:09:23;98761.91;;;17.60
12430;BMP280;6279;42.192;24.326;2022-09-01T03:11:50;98762.63;;;17.67
12430;BMP280;6279;42.192;24.326;2022-09-01T03:14:16;98760.56;;;17.69
12430;BMP280;6279;42.192;24.326;2022-09-01T03:16:42;98770.06;;;17.52
12430;BMP280;6279;42.192;24.326;2022-09-01T03:19:08;98773.50;;;17.53
12430;BMP280;6279;42.192;24.326;2022-09-01T03:21:37;98776.00;;;17.41
12430;BMP280;6279;42.192;24.326;2022-09-01T03:24:05;98771.41;;;17.37
12430;BMP280;6279;42.192;24.326;2022-09-01T03:26:31;98771.72;;;17.47
12430;BMP280;6279;42.192;24.326;2022-09-01T03:28:57;98773.25;;;17.36
12430;BMP280;6279;42.192;24.326;2022-09-01T03:31:23;98774.13;;;17.48
12430;BMP280;6279;42.192;24.326;2022-09-01T03:33:52;98779.16;;;17.50
12430;BMP280;6279;42.192;24.326;2022-09-01T03:36:18;98774.81;;;17.61
12430;BMP280;6279;42.192;24.326;2022-09-01T03:38:45;98783.16;;;17.58
12430;BMP280;6279;42.192;24.326;2022-09-01T03:41:14;98780.94;;;17.56
12430;BMP280;6279;42.192;24.326;2022-09-01T03:43:42;98785.22;;;17.50
12430;BMP280;6279;42.192;24.326;2022-09-01T03:46:09;98783.00;;;17.54
12430;BMP280;6279;42.192;24.326;2022-09-01T03:48:40;98782.19;;;17.53
12430;BMP280;6279;42.192;24.326;2022-09-01T03:51:05;98780.88;;;17.62
12430;BMP280;6279;42.192;24.326;2022-09-01T03:53:33;98782.63;;;17.68
12430;BMP280;6279;42.192;24.326;2022-09-01T03:56:02;98778.19;;;17.68
12430;BMP280;6279;42.192;24.326;2022-09-01T03:58:28;98779.22;;;17.67
12430;BMP280;6279;42.192;24.326;2022-09-01T04:00:56;98785.06;;;17.69
12430;BMP280;6279;42.192;24.326;2022-09-01T04:03:24;98781.56;;;17.75
12430;BMP280;6279;42.192;24.326;2022-09-01T04:05:52;98772.09;;;17.74
12430;BMP280;6279;42.192;24.326;2022-09-01T04:08:19;98779.91;;;17.80
12430;BMP280;6279;42.192;24.326;2022-09-01T04:10:49;98783.34;;;17.81
12430;BMP280;6279;42.192;24.326;2022-09-01T04:13:24;98786.09;;;17.86
12430;BMP280;6279;42.192;24.326;2022-09-01T04:15:51;98788.50;;;17.94
12430;BMP280;6279;42.192;24.326;2022-09-01T04:18:18;98795.59;;;17.93
12430;BMP280;6279;42.192;24.326;2022-09-01T04:20:52;98788.16;;;18.08
12430;BMP280;6279;42.192;24.326;2022-09-01T04:23:21;98788.28;;;18.13
12430;BMP280;6279;42.192;24.326;2022-09-01T04:26:03;98788.22;;;18.19
12430;BMP280;6279;42.192;24.326;2022-09-01T04:28:38;98782.22;;;18.30
12430;BMP280;6279;42.192;24.326;2022-09-01T04:31:07;98789.69;;;18.33
12430;BMP280;6279;42.192;24.326;2022-09-01T04:33:35;98792.63;;;18.43
12430;BMP280;6279;42.192;24.326;2022-09-01T04:36:22;98799.69;;;18.60
12430;BMP280;6279;42.192;24.326;2022-09-01T04:38:54;98797.53;;;18.68
12430;BMP280;6279;42.192;24.326;2022-09-01T04:41:29;98784.34;;;18.86
12430;BMP280;6279;42.192;24.326;2022-09-01T04:43:58;98787.97;;;19.02
12430;BMP280;6279;42.192;24.326;2022-09-01T04:46:30;98782.84;;;19.18
12430;BMP280;6279;42.192;24.326;2022-09-01T04:48:57;98777.38;;;19.42
12430;BMP280;6279;42.192;24.326;2022-09-01T04:51:23;98774.56;;;19.66
12430;BMP280;6279;42.192;24.326;2022-09-01T04:53:53;98772.75;;;19.89
12430;BMP280;6279;42.192;24.326;2022-09-01T04:56:19;98774.44;;;20.06
12430;BMP280;6279;42.192;24.326;2022-09-01T04:58:48;98768.56;;;20.27
12430;BMP280;6279;42.192;24.326;2022-09-01T05:01:16;98765.22;;;20.43
12430;BMP280;6279;42.192;24.326;2022-09-01T05:03:42;98773.22;;;20.59
12430;BMP280;6279;42.192;24.326;2022-09-01T05:06:15;98758.31;;;20.80
12430;BMP280;6279;42.192;24.326;2022-09-01T05:08:42;98761.72;;;20.92
12430;BMP280;6279;42.192;24.326;2022-09-01T05:11:10;98767.25;;;21.07
12430;BMP280;6279;42.192;24.326;2022-09-01T05:13:36;98768.53;;;21.04
12430;BMP280;6279;42.192;24.326;2022-09-01T05:16:07;98764.78;;;21.16
12430;BMP280;6279;42.192;24.326;2022-09-01T05:18:38;98765.06;;;21.31
12430;BMP280;6279;42.192;24.326;2022-09-01T05:21:07;98753.53;;;21.37
12430;BMP280;6279;42.192;24.326;2022-09-01T05:23:38;98761.69;;;21.52
12430;BMP280;6279;42.192;24.326;2022-09-01T05:26:11;98768.75;;;21.62
12430;BMP280;6279;42.192;24.326;2022-09-01T05:28:41;98771.47;;;21.83
12430;BMP280;6279;42.192;24.326;2022-09-01T05:31:07;98764.78;;;21.97
12430;BMP280;6279;42.192;24.326;2022-09-01T05:33:34;98764.84;;;22.18
12430;BMP280;6279;42.192;24.326;2022-09-01T05:36:02;98766.69;;;22.39
12430;BMP280;6279;42.192;24.326;2022-09-01T05:38:32;98765.34;;;22.57
12430;BMP280;6279;42.192;24.326;2022-09-01T05:41:03;98767.50;;;22.81
12430;BMP280;6279;42.192;24.326;2022-09-01T05:43:33;98764.59;;;23.08
12430;BMP280;6279;42.192;24.326;2022-09-01T05:45:59;98757.56;;;23.50
12430;BMP280;6279;42.192;24.326;2022-09-01T05:48:29;98761.72;;;23.72
12430;BMP280;6279;42.192;24.326;2022-09-01T05:50:56;98755.31;;;23.68
12430;BMP280;6279;42.192;24.326;2022-09-01T05:53:25;98756.75;;;23.80
12430;BMP280;6279;42.192;24.326;2022-09-01T05:55:53;98758.53;;;24.10
12430;BMP280;6279;42.192;24.326;2022-09-01T05:58:22;98756.28;;;24.33
12430;BMP280;6279;42.192;24.326;2022-09-01T06:00:49;98752.91;;;24.57
12430;BMP280;6279;42.192;24.326;2022-09-01T06:03:16;98752.25;;;24.96
12430;BMP280;6279;42.192;24.326;2022-09-01T06:05:42;98761.34;;;25.24
12430;BMP280;6279;42.192;24.326;2022-09-01T06:08:13;98756.06;;;25.63
12430;BMP280;6279;42.192;24.326;2022-09-01T06:10:43;98755.50;;;26.00
12430;BMP280;6279;42.192;24.326;2022-09-01T06:13:10;98746.38;;;26.21
12430;BMP280;6279;42.192;24.326;2022-09-01T06:15:36;98758.28;;;26.43
12430;BMP280;6279;42.192;24.326;2022-09-01T06:18:06;98754.78;;;26.57
12430;BMP280;6279;42.192;24.326;2022-09-01T06:20:33;98761.06;;;26.85
12430;BMP280;6279;42.192;24.326;2022-09-01T06:22:59;98757.72;;;27.08
12430;BMP280;6279;42.192;24.326;2022-09-01T06:25:25;98752.59;;;27.21
12430;BMP280;6279;42.192;24.326;2022-09-01T06:27:55;98752.03;;;27.57
12430;BMP280;6279;42.192;24.326;2022-09-01T06:30:20;98755.28;;;27.82
12430;BMP280;6279;42.192;24.326;2022-09-01T06:32:47;98764.69;;;28.07
12430;BMP280;6279;42.192;24.326;2022-09-01T06:35:14;98771.47;;;27.95
12430;BMP280;6279;42.192;24.326;2022-09-01T06:37:40;98763.75;;;28.17
12430;BMP280;6279;42.192;24.326;2022-09-01T06:40:09;98758.97;;;28.14
12430;BMP280;6279;42.192;24.326;2022-09-01T06:42:46;98751.72;;;28.42
12430;BMP280;6279;42.192;24.326;2022-09-01T06:45:16;98755.41;;;28.87
12430;BMP280;6279;42.192;24.326;2022-09-01T06:47:43;98756.38;;;29.50
12430;BMP280;6279;42.192;24.326;2022-09-01T06:50:15;98755.31;;;29.33
12430;BMP280;6279;42.192;24.326;2022-09-01T06:52:41;98753.34;;;29.20
12430;BMP280;6279;42.192;24.326;2022-09-01T06:55:11;98747.78;;;29.66
12430;BMP280;6279;42.192;24.326;2022-09-01T06:57:39;98738.53;;;29.90
12430;BMP280;6279;42.192;24.326;2022-09-01T07:00:08;98746.53;;;30.08
12430;BMP280;6279;42.192;24.326;2022-09-01T07:02:46;98751.03;;;30.79
12430;BMP280;6279;42.192;24.326;2022-09-01T07:05:13;98740.09;;;31.10
12430;BMP280;6279;42.192;24.326;2022-09-01T07:07:45;98749.47;;;30.99
12430;BMP280;6279;42.192;24.326;2022-09-01T07:10:11;98737.78;;;31.30
12430;BMP280;6279;42.192;24.326;2022-09-01T07:12:38;98745.72;;;31.35
12430;BMP280;6279;42.192;24.326;2022-09-01T07:15:11;98738.25;;;31.53
12430;BMP280;6279;42.192;24.326;2022-09-01T07:17:40;98740.50;;;31.17
12430;BMP280;6279;42.192;24.326;2022-09-01T07:20:07;98729.63;;;31.86
12430;BMP280;6279;42.192;24.326;2022-09-01T07:22:33;98733.00;;;32.00
12430;BMP280;6279;42.192;24.326;2022-09-01T07:24:58;98729.44;;;32.51
12430;BMP280;6279;42.192;24.326;2022-09-01T07:27:24;98731.13;;;32.85
12430;BMP280;6279;42.192;24.326;2022-09-01T07:29:51;98737.66;;;33.26
12430;BMP280;6279;42.192;24.326;2022-09-01T07:32:19;98732.28;;;33.67
12430;BMP280;6279;42.192;24.326;2022-09-01T07:34:44;98722.75;;;34.23
12430;BMP280;6279;42.192;24.326;2022-09-01T07:37:10;98722.66;;;34.48
12430;BMP280;6279;42.192;24.326;2022-09-01T07:39:36;98729.84;;;33.91
12430;BMP280;6279;42.192;24.326;2022-09-01T07:42:03;98719.63;;;34.78
12430;BMP280;6279;42.192;24.326;2022-09-01T07:44:36;98721.94;;;35.68
12430;BMP280;6279;42.192;24.326;2022-09-01T07:47:03;98735.75;;;34.94
12430;BMP280;6279;42.192;24.326;2022-09-01T07:49:32;98711.84;;;35.56
12430;BMP280;6279;42.192;24.326;2022-09-01T07:51:58;98713.50;;;36.24
12430;BMP280;6279;42.192;24.326;2022-09-01T07:54:28;98718.56;;;36.96
12430;BMP280;6279;42.192;24.326;2022-09-01T07:56:53;98720.66;;;37.26
12430;BMP280;6279;42.192;24.326;2022-09-01T07:59:19;98716.09;;;37.69
12430;BMP280;6279;42.192;24.326;2022-09-01T08:01:45;98709.25;;;38.32
12430;BMP280;6279;42.192;24.326;2022-09-01T08:04:12;98709.97;;;38.14
12430;BMP280;6279;42.192;24.326;2022-09-01T08:06:39;98724.31;;;37.72
12430;BMP280;6279;42.192;24.326;2022-09-01T08:09:04;98714.78;;;38.50
12430;BMP280;6279;42.192;24.326;2022-09-01T08:11:31;98715.00;;;37.31
12430;BMP280;6279;42.192;24.326;2022-09-01T08:13:58;98714.69;;;37.48
12430;BMP280;6279;42.192;24.326;2022-09-01T08:16:25;98705.03;;;36.26
12430;BMP280;6279;42.192;24.326;2022-09-01T08:18:50;98707.59;;;37.70
12430;BMP280;6279;42.192;24.326;2022-09-01T08:21:17;98697.75;;;39.58
12430;BMP280;6279;42.192;24.326;2022-09-01T08:23:46;98695.72;;;41.12
12430;BMP280;6279;42.192;24.326;2022-09-01T08:26:14;98702.31;;;41.37
12430;BMP280;6279;42.192;24.326;2022-09-01T08:28:40;98697.59;;;41.66
12430;BMP280;6279;42.192;24.326;2022-09-01T08:31:08;98683.50;;;42.99
12430;BMP280;6279;42.192;24.326;2022-09-01T08:33:38;98680.81;;;43.09
12430;BMP280;6279;42.192;24.326;2022-09-01T08:36:10;98687.81;;;44.07
12430;BMP280;6279;42.192;24.326;2022-09-01T08:38:36;98689.38;;;44.80
12430;BMP280;6279;42.192;24.326;2022-09-01T08:41:05;98687.13;;;45.59
12430;BMP280;6279;42.192;24.326;2022-09-01T08:48:42;98693.59;;;39.82
12430;BMP280;6279;42.192;24.326;2022-09-01T08:51:14;98681.25;;;40.32
12430;BMP280;6279;42.192;24.326;2022-09-01T08:53:48;98687.09;;;39.68
12430;BMP280;6279;42.192;24.326;2022-09-01T08:56:16;98679.38;;;39.33
12430;BMP280;6279;42.192;24.326;2022-09-01T08:58:42;98672.69;;;41.39
12430;BMP280;6279;42.192;24.326;2022-09-01T09:01:15;98663.81;;;42.76
12430;BMP280;6279;42.192;24.326;2022-09-01T09:08:54;98645.84;;;43.79
12430;BMP280;6279;42.192;24.326;2022-09-01T09:14:44;98650.03;;;40.77
12430;BMP280;6279;42.192;24.326;2022-09-01T09:17:13;98657.00;;;39.43
12430;BMP280;6279;42.192;24.326;2022-09-01T09:19:41;98654.28;;;38.87
12430;BMP280;6279;42.192;24.326;2022-09-01T09:22:10;98645.41;;;37.65
12430;BMP280;6279;42.192;24.326;2022-09-01T09:29:42;98631.06;;;42.30
12430;BMP280;6279;42.192;24.326;2022-09-01T09:32:08;98627.06;;;41.10
12430;BMP280;6279;42.192;24.326;2022-09-01T09:34:40;98629.41;;;40.29
12430;BMP280;6279;42.192;24.326;2022-09-01T09:37:24;98625.25;;;39.91
12430;BMP280;6279;42.192;24.326;2022-09-01T09:40:14;98621.97;;;38.18
12430;BMP280;6279;42.192;24.326;2022-09-01T09:42:43;98620.41;;;39.22
12430;BMP280;6279;42.192;24.326;2022-09-01T09:47:56;98627.59;;;38.10
12430;BMP280;6279;42.192;24.326;2022-09-01T09:50:26;98621.84;;;39.16
12430;BMP280;6279;42.192;24.326;2022-09-01T09:53:10;98617.28;;;38.34
12430;BMP280;6279;42.192;24.326;2022-09-01T09:55:49;98613.09;;;38.21
12430;BMP280;6279;42.192;24.326;2022-09-01T09:58:16;98598.03;;;39.50
12430;BMP280;6279;42.192;24.326;2022-09-01T10:01:07;98598.78;;;39.91
12430;BMP280;6279;42.192;24.326;2022-09-01T10:03:42;98602.78;;;39.97
12430;BMP280;6279;42.192;24.326;2022-09-01T10:06:10;98600.47;;;38.28
12430;BMP280;6279;42.192;24.326;2022-09-01T10:08:42;98609.56;;;38.51
12430;BMP280;6279;42.192;24.326;2022-09-01T10:11:36;98601.66;;;38.12
12430;BMP280;6279;42.192;24.326;2022-09-01T10:14:15;98595.63;;;38.37
12430;BMP280;6279;42.192;24.326;2022-09-01T10:16:41;98586.72;;;39.48
12430;BMP280;6279;42.192;24.326;2022-09-01T10:19:12;98582.28;;;40.54
12430;BMP280;6279;42.192;24.326;2022-09-01T10:21:40;98579.44;;;39.52
12430;BMP280;6279;42.192;24.326;2022-09-01T10:26:55;98589.78;;;38.20
12430;BMP280;6279;42.192;24.326;2022-09-01T10:29:36;98587.69;;;38.29
12430;BMP280;6279;42.192;24.326;2022-09-01T10:32:07;98589.25;;;38.45
12430;BMP280;6279;42.192;24.326;2022-09-01T10:34:35;98589.47;;;37.76
12430;BMP280;6279;42.192;24.326;2022-09-01T10:37:02;98585.66;;;37.50
12430;BMP280;6279;42.192;24.326;2022-09-01T10:39:28;98581.78;;;37.21
12430;BMP280;6279;42.192;24.326;2022-09-01T10:41:55;98581.00;;;37.20
12430;BMP280;6279;42.192;24.326;2022-09-01T10:44:36;98587.09;;;35.93
12430;BMP280;6279;42.192;24.326;2022-09-01T10:47:23;98570.84;;;36.40
12430;BMP280;6279;42.192;24.326;2022-09-01T10:55:17;98560.19;;;36.47
12430;BMP280;6279;42.192;24.326;2022-09-01T10:58:00;98566.22;;;36.79
12430;BMP280;6279;42.192;24.326;2022-09-01T11:08:45;98546.88;;;38.10
12430;BMP280;6279;42.192;24.326;2022-09-01T11:13:50;98551.75;;;36.48
12430;BMP280;6279;42.192;24.326;2022-09-01T11:18:49;98540.22;;;37.47
12430;BMP280;6279;42.192;24.326;2022-09-01T11:21:33;98535.91;;;38.41
12430;BMP280;6279;42.192;24.326;2022-09-01T11:27:02;98537.31;;;38.68
12430;BMP280;6279;42.192;24.326;2022-09-01T11:30:07;98537.34;;;37.55
12430;BMP280;6279;42.192;24.326;2022-09-01T11:32:37;98531.75;;;35.35
12430;BMP280;6279;42.192;24.326;2022-09-01T11:35:06;98521.00;;;34.72
12430;BMP280;6279;42.192;24.326;2022-09-01T11:37:38;98515.72;;;34.35
12430;BMP280;6279;42.192;24.326;2022-09-01T11:40:05;98523.72;;;35.15
12430;BMP280;6279;42.192;24.326;2022-09-01T11:42:42;98519.91;;;35.83
12430;BMP280;6279;42.192;24.326;2022-09-01T11:45:20;98515.28;;;35.84
12430;BMP280;6279;42.192;24.326;2022-09-01T11:47:49;98511.75;;;36.30
12430;BMP280;6279;42.192;24.326;2022-09-01T11:50:20;98511.78;;;35.60
12430;BMP280;6279;42.192;24.326;2022-09-01T11:52:59;98503.38;;;36.12
12430;BMP280;6279;42.192;24.326;2022-09-01T11:55:42;98507.44;;;36.18
12430;BMP280;6279;42.192;24.326;2022-09-01T12:01:32;98493.59;;;35.49
12430;BMP280;6279;42.192;24.326;2022-09-01T12:04:20;98492.03;;;35.95
12430;BMP280;6279;42.192;24.326;2022-09-01T12:06:55;98496.66;;;36.44
12430;BMP280;6279;42.192;24.326;2022-09-01T12:09:30;98491.56;;;36.04
12430;BMP280;6279;42.192;24.326;2022-09-01T12:11:56;98487.13;;;36.12
12430;BMP280;6279;42.192;24.326;2022-09-01T12:14:21;98480.00;;;36.58
12430;BMP280;6279;42.192;24.326;2022-09-01T12:16:56;98481.66;;;35.97
12430;BMP280;6279;42.192;24.326;2022-09-01T12:19:25;98479.72;;;35.97
12430;BMP280;6279;42.192;24.326;2022-09-01T12:22:13;98480.09;;;36.22
12430;BMP280;6279;42.192;24.326;2022-09-01T12:24:44;98482.81;;;36.34
12430;BMP280;6279;42.192;24.326;2022-09-01T12:27:10;98468.38;;;36.57
12430;BMP280;6279;42.192;24.326;2022-09-01T12:29:36;98482.28;;;35.35
12430;BMP280;6279;42.192;24.326;2022-09-01T12:32:03;98481.28;;;35.28
12430;BMP280;6279;42.192;24.326;2022-09-01T12:37:18;98469.50;;;34.17
12430;BMP280;6279;42.192;24.326;2022-09-01T12:39:56;98470.19;;;33.57
12430;BMP280;6279;42.192;24.326;2022-09-01T12:42:33;98467.63;;;33.60
12430;BMP280;6279;42.192;24.326;2022-09-01T12:45:00;98455.38;;;33.91
12430;BMP280;6279;42.192;24.326;2022-09-01T12:49:59;98460.75;;;35.15
12430;BMP280;6279;42.192;24.326;2022-09-01T12:52:28;98459.25;;;34.94
12430;BMP280;6279;42.192;24.326;2022-09-01T13:00:13;98441.91;;;34.11
12430;BMP280;6279;42.192;24.326;2022-09-01T13:02:43;98444.47;;;34.08
12430;BMP280;6279;42.192;24.326;2022-09-01T13:08:07;98436.56;;;34.86
12430;BMP280;6279;42.192;24.326;2022-09-01T13:13:03;98426.38;;;34.60
12430;BMP280;6279;42.192;24.326;2022-09-01T13:15:29;98432.13;;;34.39
12430;BMP280;6279;42.192;24.326;2022-09-01T13:17:59;98432.63;;;33.52
12430;BMP280;6279;42.192;24.326;2022-09-01T13:20:24;98431.63;;;32.83
12430;BMP280;6279;42.192;24.326;2022-09-01T13:22:50;98433.88;;;32.64
12430;BMP280;6279;42.192;24.326;2022-09-01T13:25:18;98432.66;;;32.20
12430;BMP280;6279;42.192;24.326;2022-09-01T13:27:45;98428.66;;;32.35
12430;BMP280;6279;42.192;24.326;2022-09-01T13:30:14;98431.66;;;32.66
12430;BMP280;6279;42.192;24.326;2022-09-01T13:32:41;98436.28;;;33.03
12430;BMP280;6279;42.192;24.326;2022-09-01T13:35:07;98438.72;;;33.32
12430;BMP280;6279;42.192;24.326;2022-09-01T13:37:32;98443.22;;;33.57
12430;BMP280;6279;42.192;24.326;2022-09-01T13:39:58;98438.13;;;33.64
12430;BMP280;6279;42.192;24.326;2022-09-01T13:42:23;98437.94;;;33.32
12430;BMP280;6279;42.192;24.326;2022-09-01T13:44:49;98438.53;;;33.01
12430;BMP280;6279;42.192;24.326;2022-09-01T13:47:14;98436.09;;;32.63
12430;BMP280;6279;42.192;24.326;2022-09-01T13:49:40;98437.38;;;32.73
12430;BMP280;6279;42.192;24.326;2022-09-01T13:52:05;98432.41;;;32.92
12430;BMP280;6279;42.192;24.326;2022-09-01T13:54:31;98433.56;;;33.19
12430;BMP280;6279;42.192;24.326;2022-09-01T13:56:56;98424.38;;;32.75
12430;BMP280;6279;42.192;24.326;2022-09-01T13:59:22;98423.13;;;32.64
12430;BMP280;6279;42.192;24.326;2022-09-01T14:01:47;98413.41;;;32.72
12430;BMP280;6279;42.192;24.326;2022-09-01T14:04:13;98415.84;;;33.02
12430;BMP280;6279;42.192;24.326;2022-09-01T14:06:42;98418.44;;;32.90
12430;BMP280;6279;42.192;24.326;2022-09-01T14:09:13;98411.41;;;33.06
12430;BMP280;6279;42.192;24.326;2022-09-01T14:11:38;98413.53;;;32.92
12430;BMP280;6279;42.192;24.326;2022-09-01T14:14:04;98401.88;;;33.16
12430;BMP280;6279;42.192;24.326;2022-09-01T14:16:30;98401.31;;;33.59
12430;BMP280;6279;42.192;24.326;2022-09-01T14:18:56;98403.63;;;33.89
12430;BMP280;6279;42.192;24.326;2022-09-01T14:21:23;98412.31;;;33.95
12430;BMP280;6279;42.192;24.326;2022-09-01T14:23:49;98406.22;;;34.06
12430;BMP280;6279;42.192;24.326;2022-09-01T14:26:15;98403.66;;;34.09
12430;BMP280;6279;42.192;24.326;2022-09-01T14:28:42;98401.69;;;33.98
12430;BMP280;6279;42.192;24.326;2022-09-01T14:31:13;98402.44;;;33.58
12430;BMP280;6279;42.192;24.326;2022-09-01T14:33:39;98399.59;;;33.27
12430;BMP280;6279;42.192;24.326;2022-09-01T14:36:06;98411.56;;;33.01
12430;BMP280;6279;42.192;24.326;2022-09-01T14:38:32;98410.00;;;32.55
12430;BMP280;6279;42.192;24.326;2022-09-01T14:40:58;98414.16;;;32.19
12430;BMP280;6279;42.192;24.326;2022-09-01T14:43:24;98410.16;;;32.33
12430;BMP280;6279;42.192;24.326;2022-09-01T14:46:02;98410.44;;;32.48
12430;BMP280;6279;42.192;24.326;2022-09-01T14:48:30;98405.03;;;32.73
12430;BMP280;6279;42.192;24.326;2022-09-01T14:50:56;98406.56;;;32.91
12430;BMP280;6279;42.192;24.326;2022-09-01T14:53:22;98403.81;;;32.99
12430;BMP280;6279;42.192;24.326;2022-09-01T14:55:48;98388.44;;;33.00
12430;BMP280;6279;42.192;24.326;2022-09-01T14:58:13;98378.47;;;33.08
12430;BMP280;6279;42.192;24.326;2022-09-01T15:00:39;98383.41;;;32.90
12430;BMP280;6279;42.192;24.326;2022-09-01T15:03:06;98390.03;;;32.56
12430;BMP280;6279;42.192;24.326;2022-09-01T15:05:31;98392.13;;;32.25
12430;BMP280;6279;42.192;24.326;2022-09-01T15:07:57;98388.19;;;32.06
12430;BMP280;6279;42.192;24.326;2022-09-01T15:10:24;98393.41;;;32.19
12430;BMP280;6279;42.192;24.326;2022-09-01T15:12:50;98386.25;;;32.32
12430;BMP280;6279;42.192;24.326;2022-09-01T15:15:16;98390.38;;;32.29
12430;BMP280;6279;42.192;24.326;2022-09-01T15:17:41;98402.91;;;32.25
12430;BMP280;6279;42.192;24.326;2022-09-01T15:20:07;98397.66;;;32.29
12430;BMP280;6279;42.192;24.326;2022-09-01T15:22:52;98394.78;;;32.00
12430;BMP280;6279;42.192;24.326;2022-09-01T15:25:17;98397.97;;;31.77